Time;durP1;ratioP1;P1;durP2;ratioP2;P2;SDS_P1;SDS_P2;PMS_P1;PMS_P2;Temp;Humidity;BMP_temperature;BMP_pressure;BME280_temperature;BME280_humidity;BME280_pressure;Samples;Min_cycle;Max_cycle;Signal;HPM_P1;HPM_P2
2022/05/18 00:02:00;;;;;;;7.17;6.27;;;;;;;17.61;85.53;98594.47;4130105;28;21249;-92
2022/05/18 00:04:04;;;;;;;7.60;6.80;;;;;;;17.57;86.68;98588.59;4107223;28;20660;-91
2022/05/18 00:06:08;;;;;;;8.27;6.67;;;;;;;17.55;86.10;98595.00;4110588;28;21424;-92
2022/05/18 00:08:12;;;;;;;7.50;6.60;;;;;;;17.54;86.68;98588.88;4117539;28;20642;-92
2022/05/18 00:10:16;;;;;;;7.77;6.97;;;;;;;17.53;86.72;98595.16;4132124;28;20732;-92
2022/05/18 00:12:19;;;;;;;7.43;6.70;;;;;;;17.51;85.48;98593.59;4124461;28;20647;-92
2022/05/18 00:14:23;;;;;;;8.57;7.33;;;;;;;17.46;85.69;98600.28;4122964;28;20671;-92
2022/05/18 00:16:27;;;;;;;7.37;6.67;;;;;;;17.45;86.52;98595.94;4111426;28;20687;-92
2022/05/18 00:18:31;;;;;;;12.03;7.57;;;;;;;17.44;85.00;98603.03;4125981;28;20661;-92
2022/05/18 00:20:34;;;;;;;9.17;6.80;;;;;;;17.45;86.54;98603.88;4116265;28;20998;-92
2022/05/18 00:22:44;;;;;;;12.00;6.80;;;;;;;17.45;85.42;98598.59;4129235;28;20670;-92
2022/05/18 00:24:49;;;;;;;8.63;7.10;;;;;;;17.41;85.95;98599.81;4114874;28;20643;-91
2022/05/18 00:26:52;;;;;;;8.10;6.60;;;;;;;17.41;85.00;98602.44;4125974;28;21217;-92
2022/05/18 00:28:56;;;;;;;8.20;7.30;;;;;;;17.38;84.99;98605.34;4110130;28;20644;-92
2022/05/18 00:31:00;;;;;;;8.00;7.10;;;;;;;17.38;84.89;98606.22;4111783;28;20632;-92
2022/05/18 00:33:05;;;;;;;10.43;8.20;;;;;;;17.35;85.41;98610.91;4128150;28;20650;-92
2022/05/18 00:35:10;;;;;;;9.97;6.53;;;;;;;17.30;85.50;98610.47;4124701;28;20666;-92
2022/05/18 00:37:13;;;;;;;9.00;6.60;;;;;;;17.28;85.52;98612.41;4126653;28;20683;-92
2022/05/18 00:39:16;;;;;;;8.10;7.10;;;;;;;17.25;86.12;98618.78;4109400;28;20671;-92
2022/05/18 00:41:23;;;;;;;7.77;7.07;;;;;;;17.21;85.65;98611.28;4123351;28;21226;-92
2022/05/18 00:43:41;;;;;;;10.33;7.30;;;;;;;17.19;86.01;98623.72;4113852;28;20636;-92
2022/05/18 00:45:45;;;;;;;7.87;6.90;;;;;;;17.14;86.36;98621.50;4111921;28;20642;-92
2022/05/18 00:47:49;;;;;;;7.37;6.63;;;;;;;17.10;86.21;98620.06;4113262;28;20644;-92
2022/05/18 00:49:58;;;;;;;7.73;6.90;;;;;;;17.12;86.02;98612.88;4133556;28;20643;-92
2022/05/18 00:52:01;;;;;;;8.33;7.13;;;;;;;17.14;86.71;98620.66;4133367;28;21057;-91
2022/05/18 00:54:15;;;;;;;7.80;7.00;;;;;;;17.11;86.33;98610.38;4111231;28;20632;-92
2022/05/18 00:56:22;;;;;;;9.50;7.10;;;;;;;17.07;87.36;98609.78;4112228;28;20644;-92
2022/05/18 00:58:31;;;;;;;7.53;6.83;;;;;;;17.08;86.56;98610.66;4116257;28;20746;-92
2022/05/18 01:00:36;;;;;;;8.43;7.00;;;;;;;17.06;87.29;98604.66;4143956;28;20789;-90
2022/05/18 01:02:41;;;;;;;9.60;6.20;;;;;;;17.05;86.41;98611.72;4147590;28;20742;-90
2022/05/18 01:04:46;;;;;;;9.30;6.73;;;;;;;17.06;87.14;98615.19;4127669;28;20667;-90
2022/05/18 01:06:54;;;;;;;11.10;6.07;;;;;;;17.05;86.57;98605.63;4130595;28;20635;-92
2022/05/18 01:09:01;;;;;;;7.83;7.10;;;;;;;17.03;85.63;98607.53;4146956;28;20809;-91
2022/05/18 01:11:05;;;;;;;7.23;6.53;;;;;;;16.99;87.29;98612.25;4126121;28;20690;-92
2022/05/18 01:13:10;;;;;;;7.80;6.40;;;;;;;16.98;86.17;98607.13;4117499;28;20627;-92
2022/05/18 01:15:15;;;;;;;8.90;7.10;;;;;;;16.96;87.60;98609.06;4131700;28;20731;-90
2022/05/18 01:17:21;;;;;;;7.10;6.40;;;;;;;16.95;87.27;98606.56;4111299;28;20665;-90
2022/05/18 01:19:36;;;;;;;8.83;7.70;;;;;;;16.91;86.54;98598.06;4145853;28;21082;-90
2022/05/18 01:21:44;;;;;;;6.40;5.80;;;;;;;16.93;87.14;98605.81;4128916;28;21222;-90
2022/05/18 01:23:55;;;;;;;8.33;6.57;;;;;;;16.91;86.78;98602.50;4142233;28;21218;-90
2022/05/18 01:26:07;;;;;;;7.90;6.87;;;;;;;16.91;87.75;98603.31;4128985;28;20627;-90
2022/05/18 01:28:12;;;;;;;7.63;6.60;;;;;;;16.92;86.82;98609.44;4143782;28;20661;-90
2022/05/18 01:30:15;;;;;;;7.97;7.13;;;;;;;16.88;86.83;98611.50;4131894;28;20663;-90
2022/05/18 01:32:19;;;;;;;7.90;6.47;;;;;;;16.88;85.78;98613.31;4131753;28;20631;-90
2022/05/18 01:34:26;;;;;;;8.33;6.47;;;;;;;16.86;86.46;98613.44;4130226;28;20634;-90
2022/05/18 01:36:29;;;;;;;8.83;6.90;;;;;;;16.86;86.81;98615.25;4144842;28;20657;-90
2022/05/18 01:38:33;;;;;;;7.73;6.93;;;;;;;16.82;86.02;98612.00;4131663;28;20647;-90
2022/05/18 01:40:42;;;;;;;8.37;7.20;;;;;;;16.79;85.87;98614.91;4116266;28;20628;-90
2022/05/18 01:42:47;;;;;;;8.93;6.87;;;;;;;16.78;86.11;98613.25;4129904;28;20643;-90
2022/05/18 01:44:52;;;;;;;8.20;7.40;;;;;;;16.74;87.39;98616.28;4130269;28;20634;-90
2022/05/18 01:46:55;;;;;;;10.90;7.37;;;;;;;16.71;85.86;98614.72;4129699;28;20635;-90
2022/05/18 01:48:59;;;;;;;9.27;7.40;;;;;;;16.67;87.42;98615.09;4133905;28;20976;-90
2022/05/18 01:51:03;;;;;;;8.23;7.23;;;;;;;16.63;86.16;98613.72;4128553;28;20642;-90
2022/05/18 01:53:07;;;;;;;8.27;6.93;;;;;;;16.59;86.37;98612.28;4146616;28;21071;-90
2022/05/18 01:55:11;;;;;;;8.30;7.10;;;;;;;16.56;86.34;98629.19;4111559;28;20677;-90
2022/05/18 01:57:15;;;;;;;8.13;7.33;;;;;;;16.56;88.47;98626.53;4126451;28;20692;-89
2022/05/18 01:59:18;;;;;;;8.60;7.23;;;;;;;16.55;86.87;98631.94;4114697;28;20656;-90
2022/05/18 02:01:23;;;;;;;10.40;7.50;;;;;;;16.52;87.12;98633.06;4132385;28;20673;-89
2022/05/18 02:03:26;;;;;;;11.17;7.33;;;;;;;16.49;87.60;98636.88;4110559;28;20732;-89
2022/05/18 02:05:30;;;;;;;7.80;6.00;;;;;;;16.43;87.28;98637.41;4126221;28;20663;-90
2022/05/18 02:07:33;;;;;;;10.37;6.47;;;;;;;16.39;86.97;98638.59;4129123;28;21223;-90
2022/05/18 02:09:37;;;;;;;8.33;7.47;;;;;;;16.36;87.18;98642.34;4146138;28;20673;-90
2022/05/18 02:11:40;;;;;;;7.63;6.83;;;;;;;16.33;86.33;98642.59;4128310;28;20683;-90
2022/05/18 02:13:44;;;;;;;8.37;7.47;;;;;;;16.32;88.21;98629.56;4128396;28;20682;-89
2022/05/18 02:15:48;;;;;;;8.57;7.43;;;;;;;16.30;88.62;98626.22;4142662;28;20631;-90
2022/05/18 02:17:53;;;;;;;8.80;7.23;;;;;;;16.30;87.87;98626.22;4113207;28;21121;-90
2022/05/18 02:19:57;;;;;;;10.13;7.40;;;;;;;16.31;88.45;98626.09;4130347;28;20667;-90
2022/05/18 02:22:01;;;;;;;8.67;6.77;;;;;;;16.31;88.42;98627.88;4113754;28;20652;-90
2022/05/18 02:24:05;;;;;;;9.37;7.50;;;;;;;16.28;87.88;98623.72;4128551;28;20736;-90
2022/05/18 02:26:10;;;;;;;9.03;7.87;;;;;;;16.30;87.05;98623.59;4111849;28;21138;-90
2022/05/18 02:28:13;;;;;;;8.63;7.60;;;;;;;16.27;87.74;98611.50;4129592;28;20727;-90
2022/05/18 02:30:17;;;;;;;8.23;7.17;;;;;;;16.25;87.37;98621.34;4111164;28;20632;-90
2022/05/18 02:32:20;;;;;;;8.43;7.43;;;;;;;16.26;88.14;98620.38;4111017;28;20672;-90
2022/05/18 02:34:25;;;;;;;10.93;7.10;;;;;;;16.23;87.12;98619.78;4130947;28;20632;-90
2022/05/18 02:36:29;;;;;;;8.40;7.13;;;;;;;16.20;87.57;98625.28;4128053;28;21553;-90
2022/05/18 02:38:32;;;;;;;10.50;7.60;;;;;;;16.19;87.91;98623.59;4128409;28;20750;-90
2022/05/18 02:40:35;;;;;;;8.63;7.30;;;;;;;16.16;87.31;98621.22;4141591;28;20707;-90
2022/05/18 02:42:41;;;;;;;8.90;6.93;;;;;;;16.17;87.03;98621.09;4112286;28;20765;-90
2022/05/18 02:44:45;;;;;;;8.47;7.47;;;;;;;16.14;88.64;98617.88;4129388;28;20651;-89
2022/05/18 02:46:49;;;;;;;9.77;7.73;;;;;;;16.12;87.95;98611.91;4125692;28;20635;-90
2022/05/18 02:48:52;;;;;;;8.87;7.93;;;;;;;16.11;87.17;98616.31;4126659;28;20635;-90
2022/05/18 02:50:57;;;;;;;8.10;7.30;;;;;;;16.06;88.60;98622.94;4129060;28;20639;-90
2022/05/18 02:53:00;;;;;;;9.20;8.23;;;;;;;16.05;87.86;98632.63;4129233;28;20647;-90
2022/05/18 02:57:26;;;;;;;9.03;7.53;;;;;;;16.02;89.49;98647.00;4143705;28;20696;-91
2022/05/18 02:59:30;;;;;;;10.03;7.63;;;;;;;15.98;87.41;98646.38;4139628;28;20630;-90
2022/05/18 03:01:33;;;;;;;10.40;8.20;;;;;;;15.94;88.89;98647.63;4129769;28;20638;-90
2022/05/18 03:03:37;;;;;;;9.77;7.80;;;;;;;15.93;88.45;98648.56;4129856;28;20779;-90
2022/05/18 03:05:40;;;;;;;10.30;8.30;;;;;;;15.92;88.20;98646.06;4112815;28;20643;-90
2022/05/18 03:07:45;;;;;;;10.07;8.97;;;;;;;15.91;88.24;98653.13;4129161;28;21229;-90
2022/05/18 03:09:49;;;;;;;9.63;8.63;;;;;;;15.88;87.76;98652.56;4142879;28;20636;-90
2022/05/18 03:11:52;;;;;;;9.20;7.63;;;;;;;15.86;87.84;98652.66;4123005;28;20755;-90
2022/05/18 03:13:55;;;;;;;9.47;8.47;;;;;;;15.81;88.26;98646.91;4128208;28;20695;-90
2022/05/18 03:15:59;;;;;;;11.53;8.53;;;;;;;15.80;87.67;98650.53;4129164;28;20662;-90
2022/05/18 03:18:05;;;;;;;12.83;8.90;;;;;;;15.77;88.43;98650.78;4113159;28;20711;-90
2022/05/18 03:23:33;;;;;;;10.40;9.10;;;;;;;15.78;88.58;98662.94;4114512;28;20628;-90
2022/05/18 03:24:57;;;;;;;11.93;8.03;;;;;;;15.72;87.74;98659.97;4119013;28;20646;-90
2022/05/18 03:27:01;;;;;;;10.20;7.97;;;;;;;15.71;87.42;98664.41;4144180;28;20704;-90
2022/05/18 03:29:04;;;;;;;8.93;8.03;;;;;;;15.69;88.81;98666.31;4127964;28;20630;-90
2022/05/18 03:31:08;;;;;;;10.57;9.30;;;;;;;15.67;88.59;98662.16;4145166;28;20606;-89
2022/05/18 03:33:12;;;;;;;9.47;8.57;;;;;;;15.64;88.87;98667.66;4108224;28;20703;-89
2022/05/18 03:35:15;;;;;;;9.53;8.53;;;;;;;15.64;90.02;98662.41;4131067;28;20718;-90
2022/05/18 03:37:19;;;;;;;11.27;8.10;;;;;;;15.62;88.61;98667.78;4129432;28;20686;-90
2022/05/18 03:39:22;;;;;;;9.00;8.00;;;;;;;15.63;88.85;98672.06;4127508;28;20770;-90
2022/05/18 03:41:27;;;;;;;9.43;8.43;;;;;;;15.60;89.39;98664.41;4110870;28;20652;-90
2022/05/18 03:43:30;;;;;;;9.93;8.10;;;;;;;15.58;88.78;98666.34;4126514;28;20639;-90
2022/05/18 03:45:34;;;;;;;9.20;8.17;;;;;;;15.57;88.74;98666.47;4122555;28;20612;-90
2022/05/18 03:47:37;;;;;;;12.50;8.63;;;;;;;15.55;89.00;98664.94;4127157;28;20733;-90
2022/05/18 03:49:41;;;;;;;9.27;8.20;;;;;;;15.56;89.06;98670.06;4128438;28;20624;-90
2022/05/18 03:51:45;;;;;;;10.33;8.93;;;;;;;15.56;89.53;98675.31;4114920;28;20636;-90
2022/05/18 03:53:49;;;;;;;11.27;9.00;;;;;;;15.60;89.80;98672.28;4129878;28;20632;-90
2022/05/18 03:55:52;;;;;;;11.00;9.37;;;;;;;15.60;89.36;98671.47;4130831;28;20713;-90
2022/05/18 03:57:57;;;;;;;12.27;9.00;;;;;;;15.62;88.79;98678.28;4146882;28;21090;-90
2022/05/18 04:00:00;;;;;;;11.37;8.97;;;;;;;15.61;89.82;98673.16;4147386;28;20636;-90
2022/05/18 04:02:07;;;;;;;12.90;10.93;;;;;;;15.58;90.04;98679.47;4131636;28;21221;-90
2022/05/18 04:04:11;;;;;;;12.83;8.83;;;;;;;15.58;88.69;98678.66;4141989;28;21318;-90
2022/05/18 04:06:16;;;;;;;10.00;8.90;;;;;;;15.55;89.93;98674.47;4130714;28;20635;-90
2022/05/18 04:08:19;;;;;;;12.67;8.43;;;;;;;15.54;88.66;98681.66;4112584;28;20644;-90
2022/05/18 04:10:23;;;;;;;9.30;8.40;;;;;;;15.55;89.75;98678.06;4114205;28;20636;-90
2022/05/18 04:12:26;;;;;;;11.27;8.70;;;;;;;15.58;90.12;98678.66;4131716;28;20643;-90
2022/05/18 04:14:31;;;;;;;10.23;8.97;;;;;;;15.59;90.07;98675.03;4107839;28;20633;-89
2022/05/18 04:16:35;;;;;;;10.10;9.03;;;;;;;15.61;89.44;98683.69;4112804;28;20731;-89
2022/05/18 04:18:39;;;;;;;10.87;9.77;;;;;;;15.66;89.65;98682.34;4113624;28;20656;-90
2022/05/18 04:20:42;;;;;;;11.43;9.43;;;;;;;15.70;89.75;98691.66;4128862;28;21223;-90
2022/05/18 04:22:46;;;;;;;10.03;8.87;;;;;;;15.73;89.80;98688.78;4129915;28;20643;-90
2022/05/18 04:24:49;;;;;;;9.47;8.57;;;;;;;15.77;89.10;98695.50;4126668;28;20730;-89
2022/05/18 04:26:53;;;;;;;9.90;8.93;;;;;;;15.79;89.20;98696.19;4134390;28;20702;-90
2022/05/18 04:28:57;;;;;;;9.50;8.50;;;;;;;15.82;90.49;98697.75;4110631;28;21188;-90
2022/05/18 04:31:02;;;;;;;11.23;9.23;;;;;;;15.84;89.78;98704.56;4129514;28;20750;-90
2022/05/18 04:33:05;;;;;;;10.70;9.30;;;;;;;15.87;89.44;98706.94;4131353;28;20730;-90
2022/05/18 04:35:11;;;;;;;10.40;9.30;;;;;;;15.89;89.97;98709.44;4112042;28;20727;-90
2022/05/18 04:37:14;;;;;;;10.97;9.23;;;;;;;15.92;89.78;98703.94;4134672;28;21681;-90
2022/05/18 04:39:18;;;;;;;10.33;9.20;;;;;;;15.95;88.96;98719.50;4146667;28;20746;-90
2022/05/18 04:41:21;;;;;;;10.50;9.00;;;;;;;15.99;88.71;98716.50;4131330;28;20731;-90
2022/05/18 04:43:25;;;;;;;10.93;9.70;;;;;;;16.02;90.55;98724.97;4135784;28;20643;-90
2022/05/18 04:45:28;;;;;;;11.37;9.97;;;;;;;16.08;89.63;98721.03;4142528;28;20673;-90
2022/05/18 04:47:33;;;;;;;11.00;9.47;;;;;;;16.12;89.99;98723.28;4148834;28;20733;-90
2022/05/18 04:49:36;;;;;;;10.53;9.40;;;;;;;16.18;90.54;98732.50;4131962;28;20643;-90
2022/05/18 04:51:40;;;;;;;10.73;9.63;;;;;;;16.23;89.71;98739.06;4128872;28;20631;-90
2022/05/18 04:53:44;;;;;;;10.20;9.10;;;;;;;16.28;88.44;98739.56;4129348;28;20639;-90
2022/05/18 04:55:48;;;;;;;11.93;9.03;;;;;;;16.35;89.44;98737.25;4116227;28;21072;-90
2022/05/18 04:57:51;;;;;;;11.70;8.83;;;;;;;16.40;88.40;98745.63;4146600;28;21123;-90
2022/05/18 05:00:01;;;;;;;10.40;9.40;;;;;;;16.47;88.08;98744.16;4148043;28;20665;-90
2022/05/18 05:02:05;;;;;;;12.37;9.23;;;;;;;16.53;90.09;98750.59;4130672;28;20666;-90
2022/05/18 05:04:13;;;;;;;13.63;9.07;;;;;;;16.59;88.17;98749.25;4131424;28;20778;-90
2022/05/18 05:06:16;;;;;;;11.47;10.27;;;;;;;16.60;88.42;98754.41;4129657;28;20686;-90
2022/05/18 05:08:20;;;;;;;10.63;9.50;;;;;;;16.64;88.00;98754.97;4117178;28;20627;-92
2022/05/18 05:10:23;;;;;;;12.23;10.00;;;;;;;16.69;88.32;98751.03;4128568;28;20635;-92
2022/05/18 05:12:27;;;;;;;9.50;8.50;;;;;;;16.72;89.46;98749.94;4131483;28;20623;-90
2022/05/18 05:14:30;;;;;;;10.23;9.23;;;;;;;16.74;88.09;98769.91;4133608;28;20730;-90
2022/05/18 05:16:34;;;;;;;10.77;9.63;;;;;;;16.75;88.73;98755.78;4118259;28;21058;-90
2022/05/18 05:18:39;;;;;;;11.10;9.90;;;;;;;16.81;87.25;98757.06;4147907;28;21084;-89
2022/05/18 05:20:43;;;;;;;11.33;9.77;;;;;;;16.86;88.76;98757.53;4114713;28;20640;-90
2022/05/18 05:22:47;;;;;;;12.10;9.70;;;;;;;16.95;87.58;98767.31;4114692;28;20660;-90
2022/05/18 05:24:50;;;;;;;11.40;9.00;;;;;;;17.04;89.05;98765.56;4129299;28;21057;-90
2022/05/18 05:26:53;;;;;;;13.60;9.53;;;;;;;17.15;89.44;98762.03;4125539;28;20650;-90
2022/05/18 05:28:57;;;;;;;10.43;9.33;;;;;;;17.27;89.68;98764.50;4115734;28;20637;-90
2022/05/18 05:31:03;;;;;;;13.07;9.63;;;;;;;17.40;88.41;98764.34;4125605;28;20643;-90
2022/05/18 05:33:07;;;;;;;9.97;8.60;;;;;;;17.53;88.33;98760.53;4127112;28;20734;-90
2022/05/18 05:35:12;;;;;;;10.20;9.13;;;;;;;17.74;88.34;98766.56;4106346;28;20642;-90
2022/05/18 05:37:17;;;;;;;11.93;9.87;;;;;;;18.01;87.82;98765.88;4144760;28;21316;-91
2022/05/18 05:39:20;;;;;;;9.30;8.40;;;;;;;18.28;86.66;98773.19;4127756;28;20656;-91
2022/05/18 05:41:24;;;;;;;12.30;9.53;;;;;;;18.54;86.12;98768.09;4115344;28;20678;-91
2022/05/18 05:43:28;;;;;;;9.93;8.93;;;;;;;18.83;85.89;98776.06;4145577;28;20626;-90
2022/05/18 05:45:31;;;;;;;10.50;8.90;;;;;;;19.07;83.42;98775.53;4127439;28;20639;-90
2022/05/18 05:47:37;;;;;;;9.30;8.40;;;;;;;19.30;83.30;98781.34;4134919;28;21062;-89
2022/05/18 05:49:50;;;;;;;10.40;9.40;;;;;;;19.55;81.00;98779.75;4126771;28;20643;-90
2022/05/18 05:51:56;;;;;;;16.60;10.13;;;;;;;19.77;81.41;98787.38;4112700;28;20647;-90
2022/05/18 05:54:01;;;;;;;10.80;9.80;;;;;;;19.97;79.14;98787.16;4126514;28;20631;-90
2022/05/18 05:56:04;;;;;;;11.03;9.93;;;;;;;20.12;79.29;98788.38;4132440;28;20635;-90
2022/05/18 05:58:08;;;;;;;10.43;9.00;;;;;;;20.29;80.21;98792.88;4145945;28;20626;-90
2022/05/18 06:00:12;;;;;;;13.80;8.90;;;;;;;20.55;79.64;98789.41;4149488;28;20700;-90
2022/05/18 06:02:16;;;;;;;11.47;9.47;;;;;;;20.67;77.61;98790.00;4135821;28;20660;-90
2022/05/18 06:04:20;;;;;;;9.30;8.37;;;;;;;20.83;78.35;98791.84;4114161;28;20692;-90
2022/05/18 06:06:23;;;;;;;9.10;8.20;;;;;;;21.05;76.85;98788.75;4146728;28;20656;-90
2022/05/18 06:08:26;;;;;;;10.00;7.73;;;;;;;21.25;76.43;98792.09;4134307;28;21102;-90
2022/05/18 06:10:31;;;;;;;8.70;7.47;;;;;;;21.39;74.64;98795.00;4137400;28;20639;-90
2022/05/18 06:12:34;;;;;;;8.27;7.27;;;;;;;21.52;74.26;98785.69;4152032;28;20718;-89
2022/05/18 06:14:38;;;;;;;9.07;8.10;;;;;;;21.75;74.54;98784.19;4134560;28;20741;-91
2022/05/18 06:16:41;;;;;;;8.80;7.90;;;;;;;21.93;73.29;98792.91;4155118;28;20622;-91
2022/05/18 06:18:45;;;;;;;8.47;7.53;;;;;;;22.17;75.86;98793.03;4146236;28;20643;-91
2022/05/18 06:20:49;;;;;;;8.33;7.53;;;;;;;22.37;72.95;98801.47;4119177;28;21285;-91
2022/05/18 06:22:52;;;;;;;7.87;7.07;;;;;;;22.59;74.66;98795.56;4113287;28;20644;-92
2022/05/18 06:24:55;;;;;;;9.33;7.00;;;;;;;22.83;72.87;98806.28;4115870;28;20640;-93
2022/05/18 06:27:00;;;;;;;8.40;7.13;;;;;;;23.01;71.88;98809.66;4137200;28;21026;-93
2022/05/18 06:29:05;;;;;;;10.80;7.57;;;;;;;23.19;71.43;98804.00;4135113;28;20635;-93
2022/05/18 06:31:08;;;;;;;8.87;7.97;;;;;;;23.37;70.42;98804.69;4128208;28;20739;-92
2022/05/18 06:33:12;;;;;;;9.53;8.43;;;;;;;23.56;71.61;98806.19;4135839;28;20787;-90
2022/05/18 06:35:15;;;;;;;9.80;8.40;;;;;;;23.81;72.41;98806.00;4117490;28;20624;-92
2022/05/18 06:37:18;;;;;;;9.57;8.50;;;;;;;24.06;71.12;98810.31;4131313;28;20750;-91
2022/05/18 06:39:22;;;;;;;11.63;8.63;;;;;;;24.26;70.01;98818.56;4117243;28;20664;-92
2022/05/18 06:41:24;;;;;;;9.37;8.30;;;;;;;24.29;69.31;98817.38;4130547;28;21198;-92
2022/05/18 06:43:30;;;;;;;9.33;7.50;;;;;;;24.33;68.50;98822.25;4114953;28;21222;-91
2022/05/18 06:45:33;;;;;;;8.37;7.40;;;;;;;24.54;69.41;98819.81;4134952;28;20639;-91
2022/05/18 06:47:36;;;;;;;10.30;7.73;;;;;;;24.79;69.48;98821.34;4132695;28;20663;-90
2022/05/18 06:49:41;;;;;;;8.30;7.13;;;;;;;24.97;70.18;98825.41;4127575;28;20999;-91
2022/05/18 06:51:46;;;;;;;7.67;6.90;;;;;;;25.14;68.60;98814.50;4129602;28;21273;-91
2022/05/18 06:53:51;;;;;;;10.43;7.73;;;;;;;25.28;67.38;98812.91;4115704;28;20660;-91
2022/05/18 06:55:55;;;;;;;9.20;6.90;;;;;;;25.44;67.80;98818.09;4111195;28;20651;-90
2022/05/18 06:58:07;;;;;;;7.90;7.00;;;;;;;25.62;66.33;98817.63;4129720;28;20661;-90
2022/05/18 07:00:14;;;;;;;8.03;6.50;;;;;;;25.83;67.74;98824.97;4114675;28;20677;-90
2022/05/18 07:02:18;;;;;;;7.83;6.77;;;;;;;25.91;65.06;98820.38;4127662;28;20646;-90
2022/05/18 07:04:21;;;;;;;8.07;5.90;;;;;;;26.14;66.95;98827.31;4121725;28;21280;-91
2022/05/18 07:06:26;;;;;;;7.57;6.33;;;;;;;26.32;64.77;98822.44;4123751;28;20628;-91
2022/05/18 07:08:29;;;;;;;9.80;7.03;;;;;;;26.46;63.36;98816.28;4107681;28;20644;-91
2022/05/18 07:10:33;;;;;;;8.70;6.70;;;;;;;26.48;65.77;98824.13;4145098;28;20657;-91
2022/05/18 07:12:37;;;;;;;6.83;6.23;;;;;;;26.61;65.52;98819.75;4129557;28;20766;-91
2022/05/18 07:14:41;;;;;;;8.07;6.53;;;;;;;26.68;64.36;98826.03;4127147;28;20674;-91
2022/05/18 07:16:46;;;;;;;7.00;5.53;;;;;;;26.85;64.91;98824.78;4129471;28;20705;-91
2022/05/18 07:18:50;;;;;;;7.23;5.80;;;;;;;27.04;64.70;98829.59;4127770;28;20628;-91
2022/05/18 07:20:53;;;;;;;5.70;5.10;;;;;;;27.09;59.82;98826.16;4127796;28;20658;-91
2022/05/18 07:22:56;;;;;;;5.30;4.10;;;;;;;27.28;63.04;98830.06;4145931;28;20627;-91
2022/05/18 07:24:59;;;;;;;7.10;4.37;;;;;;;27.49;62.47;98828.19;4145990;28;20661;-90
2022/05/18 07:27:03;;;;;;;5.83;4.33;;;;;;;27.72;60.94;98828.84;4127390;28;20639;-90
2022/05/18 07:29:08;;;;;;;4.53;4.07;;;;;;;27.77;59.45;98829.09;4128788;28;20734;-90
2022/05/18 07:31:12;;;;;;;7.00;4.60;;;;;;;27.95;57.00;98826.75;4129638;28;20626;-90
2022/05/18 07:33:37;;;;;;;4.90;4.40;;;;;;;28.17;57.42;98835.41;4127453;28;20669;-90
2022/05/18 07:35:40;;;;;;;11.73;4.07;;;;;;;28.29;56.35;98836.53;4132391;28;20730;-90
2022/05/18 07:37:43;;;;;;;4.53;4.00;;;;;;;28.39;57.72;98831.66;4117887;28;21040;-91
2022/05/18 07:39:50;;;;;;;6.50;4.27;;;;;;;28.44;55.46;98829.19;4136170;28;21039;-90
2022/05/18 07:41:54;;;;;;;5.27;3.70;;;;;;;28.57;55.78;98826.59;4132791;28;20661;-90
2022/05/18 07:43:57;;;;;;;4.13;3.73;;;;;;;28.77;57.24;98832.91;4115044;28;20636;-91
2022/05/18 07:46:01;;;;;;;4.37;3.90;;;;;;;28.95;56.86;98827.81;4126591;28;20662;-91
2022/05/18 07:48:05;;;;;;;5.10;4.07;;;;;;;29.13;58.19;98826.22;4135536;28;20636;-90
2022/05/18 07:50:12;;;;;;;5.20;3.80;;;;;;;29.26;56.44;98821.72;4131487;28;20634;-91
2022/05/18 07:52:15;;;;;;;4.80;3.80;;;;;;;29.35;58.00;98820.50;4143295;28;20657;-92
2022/05/18 07:54:18;;;;;;;4.17;3.73;;;;;;;29.48;55.37;98818.66;4134216;28;20667;-91
2022/05/18 07:56:22;;;;;;;6.77;4.23;;;;;;;29.60;54.28;98821.56;4133582;28;20638;-90
2022/05/18 07:58:25;;;;;;;5.10;4.20;;;;;;;29.67;56.44;98817.84;4130099;28;20633;-91
2022/05/18 08:00:28;;;;;;;5.23;4.27;;;;;;;29.76;54.37;98823.84;4132218;28;20620;-90
2022/05/18 08:02:33;;;;;;;5.13;4.00;;;;;;;29.80;53.87;98812.50;4138698;28;21247;-91
2022/05/18 08:04:37;;;;;;;4.10;3.70;;;;;;;29.86;54.55;98816.19;4145103;28;20607;-90
2022/05/18 08:06:42;;;;;;;4.63;4.03;;;;;;;29.95;54.06;98822.00;4126371;28;20656;-90
2022/05/18 08:08:45;;;;;;;5.30;3.90;;;;;;;29.96;56.24;98825.53;4129853;28;20903;-91
2022/05/18 08:15:30;;;;;;;5.20;3.70;;;;;;;30.14;54.97;98823.84;4112396;28;20649;-90
2022/05/18 08:17:33;;;;;;;5.90;4.23;;;;;;;30.09;53.56;98820.94;4129195;28;20731;-89
2022/05/18 08:19:37;;;;;;;4.77;3.93;;;;;;;30.10;52.62;98816.38;4113375;28;20675;-90
2022/05/18 08:21:41;;;;;;;4.87;3.83;;;;;;;30.17;52.95;98814.53;4150448;28;20692;-90
2022/05/18 08:23:46;;;;;;;4.20;3.80;;;;;;;30.26;54.87;98811.38;4129744;28;20631;-90
2022/05/18 08:25:56;;;;;;;4.90;3.80;;;;;;;30.34;56.57;98819.28;4145847;28;20622;-90
2022/05/18 08:27:59;;;;;;;4.77;4.20;;;;;;;30.41;53.75;98813.88;4112468;28;20624;-91
2022/05/18 08:30:05;;;;;;;4.33;3.90;;;;;;;30.43;53.25;98818.00;4105772;28;20632;-90
2022/05/18 08:32:08;;;;;;;6.13;4.20;;;;;;;30.47;55.30;98820.06;4130639;28;20626;-90
2022/05/18 08:34:12;;;;;;;6.20;4.33;;;;;;;30.51;52.73;98820.50;4125295;28;20631;-90
2022/05/18 08:36:16;;;;;;;4.40;4.00;;;;;;;30.53;54.36;98813.00;4110297;28;20660;-91
2022/05/18 08:38:22;;;;;;;13.43;12.27;;;;;;;30.60;52.62;98819.22;4110487;28;20629;-88
2022/05/18 08:40:39;;;;;;;5.53;4.40;;;;;;;30.71;51.56;98821.25;4143424;28;21121;-94
2022/05/18 08:42:42;;;;;;;5.50;3.97;;;;;;;30.77;50.70;98823.09;4124739;28;20663;-90
2022/05/18 08:44:46;;;;;;;4.87;4.20;;;;;;;30.75;50.95;98822.47;4130878;28;20643;-90
2022/05/18 08:46:56;;;;;;;8.67;4.53;;;;;;;30.71;52.08;98816.66;4110718;28;20666;-90
2022/05/18 08:49:06;;;;;;;5.43;4.33;;;;;;;30.71;53.45;98818.56;4128843;28;21002;-90
2022/05/18 08:51:21;;;;;;;9.40;8.50;;;;;;;30.73;53.78;98814.63;4147166;28;20622;-90
2022/05/18 08:53:46;;;;;;;8.70;6.50;;;;;;;30.71;54.49;98816.66;4112307;28;20639;-90
2022/05/18 08:55:57;;;;;;;5.57;4.50;;;;;;;30.73;54.55;98813.75;4143805;28;20622;-90
2022/05/18 08:58:01;;;;;;;6.43;3.73;;;;;;;30.79;51.96;98811.03;4125930;28;20643;-90
2022/05/18 09:00:11;;;;;;;5.23;4.30;;;;;;;30.82;50.68;98815.19;4128100;28;20730;-90
2022/05/18 09:02:17;;;;;;;6.70;4.37;;;;;;;30.79;53.76;98821.81;4143956;28;20662;-91
2022/05/18 09:04:23;;;;;;;4.13;3.73;;;;;;;30.89;54.92;98818.72;4145955;28;20670;-90
2022/05/18 09:06:31;;;;;;;4.63;4.13;;;;;;;30.92;54.61;98810.19;4112394;28;20632;-91
2022/05/18 09:08:37;;;;;;;6.00;4.30;;;;;;;30.85;52.85;98815.56;4113094;28;21260;-90
2022/05/18 09:10:44;;;;;;;5.50;4.33;;;;;;;30.90;53.59;98817.66;4114543;28;21207;-90
2022/05/18 09:12:50;;;;;;;5.10;4.50;;;;;;;30.98;52.50;98813.66;4130779;28;20626;-90
2022/05/18 09:14:53;;;;;;;5.40;4.23;;;;;;;31.00;51.81;98825.09;4111881;28;20636;-90
2022/05/18 09:17:05;;;;;;;4.30;3.77;;;;;;;31.03;53.18;98818.41;4148626;28;21228;-90
2022/05/18 09:19:18;;;;;;;6.60;3.90;;;;;;;31.05;51.73;98817.19;4134296;28;20649;-90
2022/05/18 09:21:31;;;;;;;5.43;4.93;;;;;;;31.09;51.86;98814.88;4147293;28;20736;-90
2022/05/18 09:23:45;;;;;;;5.50;4.33;;;;;;;31.12;52.44;98820.69;4135515;28;20729;-90
2022/05/18 09:25:58;;;;;;;9.50;7.57;;;;;;;31.08;52.73;98813.22;4133745;28;20627;-90
2022/05/18 09:28:14;;;;;;;6.60;4.07;;;;;;;31.05;51.95;98817.19;4132260;28;20639;-91
2022/05/18 09:30:20;;;;;;;6.77;4.07;;;;;;;31.07;52.50;98817.78;4118764;28;20788;-90
2022/05/18 09:32:34;;;;;;;4.60;4.07;;;;;;;31.13;53.02;98811.53;4147712;28;20626;-90
2022/05/18 09:34:49;;;;;;;5.87;3.77;;;;;;;31.14;51.98;98815.88;4125373;28;21341;-90
2022/05/18 09:37:12;;;;;;;5.90;3.70;;;;;;;31.17;52.31;98820.84;4130743;28;20741;-90
2022/05/18 09:39:17;;;;;;;8.90;3.40;;;;;;;31.09;48.29;98814.88;4132921;28;20642;-90
2022/05/18 09:41:23;;;;;;;6.07;3.07;;;;;;;31.07;49.01;98811.56;4117611;28;20656;-90
2022/05/18 09:43:36;;;;;;;4.30;2.80;;;;;;;31.10;51.14;98817.34;4132279;28;20781;-90
2022/05/18 09:45:42;;;;;;;4.93;2.87;;;;;;;31.14;49.17;98823.97;4142418;28;20230;-89
2022/05/18 09:47:50;;;;;;;3.03;2.73;;;;;;;31.02;47.89;98808.69;4143691;28;21181;-91
2022/05/18 09:49:55;;;;;;;4.00;3.30;;;;;;;30.98;48.69;98804.75;4132157;28;20638;-91
2022/05/18 09:52:01;;;;;;;4.77;2.73;;;;;;;30.92;47.19;98809.13;4110311;28;20637;-91
2022/05/18 09:54:05;;;;;;;4.20;2.83;;;;;;;30.92;47.05;98800.22;4112363;28;20743;-91
2022/05/18 09:56:13;;;;;;;6.53;3.03;;;;;;;30.75;47.33;98792.84;4152888;28;20625;-90
2022/05/18 09:58:21;;;;;;;3.80;3.37;;;;;;;30.57;47.81;98798.09;4131566;28;20638;-91